createdAt,value
2023-02-06T00:02:26.869Z,13.60
2023-02-06T00:05:28.750Z,13.27
2023-02-06T00:08:30.476Z,12.73
2023-02-06T00:11:32.344Z,11.75
2023-02-06T00:14:34.253Z,11.77
2023-02-06T00:17:37.049Z,12.00
2023-02-06T00:20:38.983Z,11.40
2023-02-06T00:23:41.128Z,11.90
2023-02-06T00:26:43.064Z,13.52
2023-02-06T00:29:44.862Z,11.60
2023-02-06T00:32:46.612Z,12.30
2023-02-06T00:35:48.418Z,12.43
2023-02-06T00:38:50.286Z,12.77
2023-02-06T00:41:51.948Z,12.88
2023-02-06T00:44:53.685Z,14.18
2023-02-06T00:47:55.284Z,15.50
2023-02-06T00:50:57.085Z,12.23
2023-02-06T00:53:58.734Z,13.13
2023-02-06T00:57:00.410Z,13.27
2023-02-06T01:00:04.217Z,13.57
2023-02-06T01:03:05.918Z,13.63
2023-02-06T01:06:07.739Z,15.10
2023-02-06T01:09:09.368Z,14.25
2023-02-06T01:12:11.003Z,13.75
2023-02-06T01:15:13.949Z,15.27
2023-02-06T01:18:15.745Z,15.23
2023-02-06T01:21:20.798Z,14.10
2023-02-06T01:24:22.741Z,15.23
2023-02-06T01:27:24.523Z,16.30
2023-02-06T01:30:26.322Z,15.38
2023-02-06T01:33:28.084Z,15.98
2023-02-06T01:36:29.939Z,16.27
2023-02-06T01:39:31.766Z,16.58
2023-02-06T01:42:40.004Z,16.25
2023-02-06T01:45:44.090Z,17.60
2023-02-06T01:48:53.674Z,16.38
2023-02-06T01:52:31.157Z,17.65
2023-02-06T01:55:35.449Z,14.35
2023-02-06T01:58:44.558Z,14.25
2023-02-06T02:01:46.400Z,16.00
2023-02-06T02:04:48.488Z,14.13
2023-02-06T02:08:06.270Z,13.82
2023-02-06T02:11:12.274Z,13.02
2023-02-06T02:14:16.505Z,13.05
2023-02-06T02:17:35.007Z,13.75
2023-02-06T02:21:11.280Z,15.98
2023-02-06T02:24:15.459Z,15.48
2023-02-06T02:27:35.081Z,15.05
2023-02-06T02:31:08.445Z,14.65
2023-02-06T02:34:49.273Z,12.73
2023-02-06T02:38:26.234Z,12.38
2023-02-06T02:41:55.665Z,11.40
2023-02-06T02:45:06.331Z,11.95
2023-02-06T02:48:29.841Z,11.02
2023-02-06T02:51:33.890Z,11.38
2023-02-06T02:54:35.876Z,11.50
2023-02-06T02:57:37.855Z,11.75
2023-02-06T03:01:08.106Z,11.27
2023-02-06T03:04:23.075Z,12.65
2023-02-06T03:07:30.678Z,11.05
2023-02-06T03:10:58.603Z,12.23
2023-02-06T03:14:15.620Z,11.75
2023-02-06T03:17:24.674Z,11.65
2023-02-06T03:20:27.941Z,10.70
2023-02-06T03:23:33.204Z,10.50
2023-02-06T03:26:37.230Z,11.00
2023-02-06T03:29:42.684Z,10.93
2023-02-06T03:32:50.196Z,11.27
2023-02-06T03:35:52.558Z,10.60
2023-02-06T03:38:54.698Z,11.57
2023-02-06T03:41:59.738Z,10.75
2023-02-06T03:45:07.770Z,11.52
2023-02-06T03:48:19.094Z,12.20
2023-02-06T03:51:49.659Z,10.23
2023-02-06T03:55:02.382Z,11.18
2023-02-06T03:58:12.508Z,10.95
2023-02-06T04:01:14.751Z,10.47
2023-02-06T04:04:25.017Z,11.27
2023-02-06T04:07:29.829Z,10.68
2023-02-06T04:10:31.666Z,11.40
2023-02-06T04:13:33.462Z,10.48
2023-02-06T04:16:35.254Z,9.65
2023-02-06T04:19:37.226Z,10.32
2023-02-06T04:22:40.035Z,9.55
2023-02-06T04:25:41.802Z,9.13
2023-02-06T04:28:43.546Z,10.73
2023-02-06T04:31:45.219Z,10.68
2023-02-06T04:34:46.845Z,10.15
2023-02-06T04:37:48.560Z,11.70
2023-02-06T04:40:50.304Z,11.25
2023-02-06T04:43:52.130Z,11.15
2023-02-06T04:46:54.062Z,10.93
2023-02-06T04:49:55.759Z,11.38
2023-02-06T04:52:58.317Z,10.70
2023-02-06T04:56:11.903Z,9.77
2023-02-06T04:59:14.057Z,9.43
2023-02-06T05:02:15.759Z,8.93
2023-02-06T05:05:17.565Z,10.57
2023-02-06T05:08:19.772Z,11.10
2023-02-06T05:11:21.645Z,11.15
2023-02-06T05:14:23.357Z,11.23
2023-02-06T05:17:25.116Z,10.75
2023-02-06T05:20:26.934Z,11.43
2023-02-06T05:23:28.565Z,10.63
2023-02-06T05:26:30.287Z,10.52
2023-02-06T05:29:31.868Z,12.18
2023-02-06T05:32:33.539Z,10.65
2023-02-06T05:35:35.621Z,11.32
2023-02-06T05:38:37.409Z,10.65
2023-02-06T05:41:38.876Z,10.30
2023-02-06T05:44:40.843Z,10.95
2023-02-06T05:47:42.750Z,9.65
2023-02-06T05:50:45.086Z,9.23
2023-02-06T05:53:50.211Z,9.38
2023-02-06T05:56:51.884Z,10.45
2023-02-06T05:59:53.676Z,9.35
2023-02-06T06:02:55.434Z,10.68
2023-02-06T06:05:57.133Z,10.10
2023-02-06T06:09:01.327Z,9.13
2023-02-06T06:12:03.177Z,9.13
2023-02-06T06:15:05.439Z,10.02
2023-02-06T06:18:07.412Z,9.82
2023-02-06T06:21:10.692Z,10.85
2023-02-06T06:24:12.480Z,12.32
2023-02-06T06:27:14.273Z,10.90
2023-02-06T06:30:16.120Z,9.80
2023-02-06T06:33:17.836Z,10.90
2023-02-06T06:36:19.993Z,11.65
2023-02-06T06:39:21.916Z,10.70
2023-02-06T06:42:23.565Z,10.88
2023-02-06T06:45:26.427Z,11.70
2023-02-06T06:48:28.805Z,10.30
2023-02-06T06:51:30.647Z,11.27
2023-02-06T06:54:32.527Z,10.43
2023-02-06T06:57:34.300Z,10.77
2023-02-06T07:00:38.206Z,10.25
2023-02-06T07:03:44.198Z,10.30
2023-02-06T07:06:46.095Z,11.27
2023-02-06T07:09:47.952Z,9.98
2023-02-06T07:12:49.854Z,10.48
2023-02-06T07:15:51.620Z,10.20
2023-02-06T07:18:53.209Z,10.40
2023-02-06T07:21:54.791Z,10.25
2023-02-06T07:24:56.730Z,10.88
2023-02-06T07:27:59.100Z,10.90
2023-02-06T07:31:08.139Z,11.85
2023-02-06T07:34:10.046Z,10.45
2023-02-06T07:37:11.999Z,11.15
2023-02-06T07:40:13.692Z,11.02
2023-02-06T07:43:15.575Z,12.38
2023-02-06T07:46:17.358Z,10.57
2023-02-06T07:49:19.205Z,9.48
2023-02-06T07:52:22.351Z,11.35
2023-02-06T07:55:24.250Z,11.50
2023-02-06T07:58:26.367Z,11.25
2023-02-06T08:01:28.705Z,11.13
2023-02-06T08:04:35.281Z,11.23
2023-02-06T08:07:37.080Z,11.48
2023-02-06T08:10:39.888Z,9.43
2023-02-06T08:13:42.878Z,9.48
2023-02-06T08:16:44.688Z,11.30
2023-02-06T08:19:46.350Z,10.10
2023-02-06T08:22:48.192Z,10.57
2023-02-06T08:25:49.899Z,10.10
2023-02-06T08:28:52.306Z,10.45
2023-02-06T08:31:54.344Z,11.18
2023-02-06T08:34:56.132Z,9.30
2023-02-06T08:38:00.832Z,12.50
2023-02-06T08:41:03.189Z,9.73
2023-02-06T08:44:14.804Z,10.68
2023-02-06T08:47:16.509Z,10.27
2023-02-06T08:50:18.275Z,9.60
2023-02-06T08:53:20.309Z,10.90
2023-02-06T08:56:22.268Z,9.98
2023-02-06T08:59:24.608Z,10.52
2023-02-06T09:02:26.436Z,9.02
2023-02-06T09:05:28.524Z,10.30
2023-02-06T09:08:31.014Z,9.25
2023-02-06T09:11:33.585Z,9.75
2023-02-06T09:14:35.400Z,9.52
2023-02-06T09:17:37.179Z,11.02
2023-02-06T09:20:38.912Z,11.70
2023-02-06T09:23:49.818Z,10.82
2023-02-06T09:30:02.709Z,11.68
2023-02-06T09:33:04.356Z,10.98
2023-02-06T09:36:12.881Z,9.70
2023-02-06T09:39:14.721Z,10.77
2023-02-06T09:42:26.202Z,9.63
2023-02-06T09:45:29.508Z,10.15
2023-02-06T09:48:34.884Z,9.32
2023-02-06T09:51:57.210Z,10.30
2023-02-06T09:55:18.079Z,9.60
2023-02-06T09:58:26.972Z,8.35
2023-02-06T10:01:58.015Z,9.73
2023-02-06T10:08:34.288Z,10.88
2023-02-06T10:12:07.601Z,9.25
2023-02-06T10:15:17.285Z,9.52
2023-02-06T10:18:30.822Z,9.77
2023-02-06T10:21:47.989Z,9.27
2023-02-06T10:25:11.322Z,8.60
2023-02-06T10:28:26.163Z,9.63
2023-02-06T10:31:52.652Z,9.30
2023-02-06T10:35:20.352Z,9.63
2023-02-06T10:38:36.176Z,10.10
2023-02-06T10:41:58.414Z,10.13
2023-02-06T10:45:19.686Z,10.43
2023-02-06T10:48:38.333Z,9.88
2023-02-06T10:51:44.348Z,9.18
2023-02-06T10:54:56.102Z,9.43
2023-02-06T10:58:16.228Z,9.50
2023-02-06T11:01:26.089Z,8.50
2023-02-06T11:04:43.931Z,9.48
2023-02-06T11:07:50.958Z,10.25
2023-02-06T11:10:52.795Z,8.77
2023-02-06T11:14:00.188Z,10.13
2023-02-06T11:17:02.666Z,8.35
2023-02-06T11:20:26.660Z,7.97
2023-02-06T11:23:31.188Z,9.95
2023-02-06T11:26:33.014Z,9.30
2023-02-06T11:29:43.693Z,9.20
2023-02-06T11:33:02.538Z,8.30
2023-02-06T11:36:07.665Z,9.27
2023-02-06T11:39:35.654Z,8.52
2023-02-06T11:42:38.058Z,8.43
2023-02-06T11:45:41.134Z,7.57
2023-02-06T11:48:44.499Z,7.65
2023-02-06T11:51:59.751Z,7.63
2023-02-06T11:55:02.795Z,7.80
2023-02-06T11:58:13.984Z,8.20
2023-02-06T12:01:21.397Z,7.78
2023-02-06T12:04:31.777Z,7.75
2023-02-06T12:07:43.194Z,6.45
2023-02-06T12:11:04.243Z,7.30
2023-02-06T12:17:35.587Z,6.80
2023-02-06T12:20:54.542Z,8.20
2023-02-06T12:24:11.190Z,7.75
2023-02-06T12:27:21.095Z,7.20
2023-02-06T12:30:31.916Z,7.68
2023-02-06T12:33:48.441Z,8.00
2023-02-06T12:37:14.089Z,8.75
2023-02-06T12:40:38.393Z,7.45
2023-02-06T12:43:44.602Z,7.80
2023-02-06T12:46:52.101Z,7.13
2023-02-06T12:50:22.957Z,6.40
2023-02-06T12:53:57.227Z,7.85
2023-02-06T12:57:29.208Z,7.15
2023-02-06T13:00:48.993Z,7.45
2023-02-06T13:04:11.129Z,7.30
2023-02-06T13:07:16.293Z,7.60
2023-02-06T13:10:25.555Z,7.55
2023-02-06T13:13:31.061Z,6.75
2023-02-06T13:16:49.212Z,6.00
2023-02-06T13:20:05.013Z,7.40
2023-02-06T13:23:12.804Z,6.95
2023-02-06T13:26:17.420Z,6.47
2023-02-06T13:29:28.248Z,7.25
2023-02-06T13:32:31.939Z,7.30
2023-02-06T13:35:33.650Z,7.72
2023-02-06T13:38:35.305Z,6.18
2023-02-06T13:41:37.596Z,6.95
2023-02-06T13:44:40.880Z,6.93
2023-02-06T13:48:13.217Z,6.78
2023-02-06T13:51:33.789Z,6.72
2023-02-06T13:55:34.918Z,5.70
2023-02-06T13:58:41.257Z,6.07
2023-02-06T14:01:44.019Z,7.20
2023-02-06T14:04:49.683Z,6.47
2023-02-06T14:07:57.202Z,6.50
2023-02-06T14:11:41.725Z,6.30
2023-02-06T14:14:58.938Z,6.53
2023-02-06T14:18:16.114Z,5.95
2023-02-06T14:21:47.388Z,6.63
2023-02-06T14:25:11.323Z,6.13
2023-02-06T14:28:22.587Z,6.05
2023-02-06T14:31:36.476Z,6.95
2023-02-06T14:35:06.137Z,6.93
2023-02-06T14:38:45.498Z,6.70
2023-02-06T14:41:47.524Z,6.28
2023-02-06T14:44:57.312Z,7.25
2023-02-06T14:48:02.797Z,6.32
2023-02-06T14:51:06.014Z,6.32
2023-02-06T14:54:29.473Z,5.82
2023-02-06T14:57:32.286Z,5.40
2023-02-06T15:00:34.164Z,6.38
2023-02-06T15:03:36.980Z,5.57
2023-02-06T15:06:41.963Z,5.45
2023-02-06T15:09:46.673Z,5.15
2023-02-06T15:12:55.018Z,5.03
2023-02-06T15:15:57.579Z,4.70
2023-02-06T15:19:25.206Z,5.10
2023-02-06T15:22:30.037Z,4.97
2023-02-06T15:25:40.548Z,4.32
2023-02-06T15:28:44.081Z,4.53
2023-02-06T15:31:51.252Z,4.30
2023-02-06T15:34:53.422Z,4.68
2023-02-06T15:37:57.850Z,4.70
2023-02-06T15:41:07.319Z,4.85
2023-02-06T15:44:12.188Z,4.30
2023-02-06T15:47:16.774Z,4.30
2023-02-06T15:50:20.926Z,4.10
2023-02-06T15:53:40.169Z,3.80
2023-02-06T15:56:43.284Z,3.45
2023-02-06T15:59:45.642Z,3.70
2023-02-06T16:02:47.536Z,3.78
2023-02-06T16:05:50.965Z,4.25
2023-02-06T16:08:56.408Z,4.00
2023-02-06T16:11:58.485Z,4.68
2023-02-06T16:15:03.126Z,6.18
2023-02-06T16:18:30.803Z,5.60
2023-02-06T16:21:41.148Z,4.15
2023-02-06T16:24:43.747Z,4.28
2023-02-06T16:27:46.495Z,4.75
2023-02-06T16:31:05.545Z,4.00
2023-02-06T16:34:40.647Z,4.15
2023-02-06T16:37:42.357Z,4.05
2023-02-06T16:40:44.067Z,4.20
2023-02-06T16:43:45.762Z,4.35
2023-02-06T16:46:48.111Z,3.97
2023-02-06T16:49:51.159Z,4.03
2023-02-06T16:52:55.888Z,4.65
2023-02-06T16:55:58.171Z,4.32
2023-02-06T16:59:00.259Z,5.70
2023-02-06T17:02:02.115Z,5.03
2023-02-06T17:05:05.456Z,5.30
2023-02-06T17:08:24.759Z,4.70
2023-02-06T17:11:28.199Z,5.38
2023-02-06T17:14:29.835Z,5.18
2023-02-06T17:17:31.722Z,5.15
2023-02-06T17:20:39.498Z,5.82
2023-02-06T17:23:42.838Z,5.63
2023-02-06T17:26:44.537Z,5.88
2023-02-06T17:29:47.609Z,7.50
2023-02-06T17:32:50.096Z,5.80
2023-02-06T17:35:52.295Z,5.88
2023-02-06T17:38:54.085Z,6.65
2023-02-06T17:41:55.959Z,6.78
2023-02-06T17:44:57.573Z,6.15
2023-02-06T17:47:59.778Z,6.53
2023-02-06T17:51:02.147Z,6.60
2023-02-06T17:54:06.488Z,5.97
2023-02-06T17:57:08.586Z,6.28
2023-02-06T18:00:14.791Z,6.10
2023-02-06T18:03:18.416Z,6.18
2023-02-06T18:06:20.790Z,5.70
2023-02-06T18:09:22.428Z,6.53
2023-02-06T18:12:24.731Z,5.88
2023-02-06T18:15:26.525Z,5.88
2023-02-06T18:18:28.330Z,5.75
2023-02-06T18:21:31.493Z,6.55
2023-02-06T18:24:33.276Z,6.22
2023-02-06T18:27:36.952Z,6.78
2023-02-06T18:30:38.901Z,6.30
2023-02-06T18:33:41.174Z,6.28
2023-02-06T18:36:42.938Z,5.13
2023-02-06T18:39:44.748Z,4.85
2023-02-06T18:42:55.527Z,4.95
2023-02-06T18:45:59.010Z,4.60
2023-02-06T18:49:00.976Z,4.93
2023-02-06T18:52:04.279Z,4.95
2023-02-06T18:55:08.093Z,5.53
2023-02-06T18:58:10.817Z,5.78
2023-02-06T19:01:21.137Z,5.05
2023-02-06T19:04:22.903Z,5.10
2023-02-06T19:07:25.542Z,5.30
2023-02-06T19:10:27.284Z,5.32
2023-02-06T19:13:29.034Z,4.95
2023-02-06T19:16:32.968Z,5.40
2023-02-06T19:19:34.622Z,6.25
2023-02-06T19:22:38.765Z,5.78
2023-02-06T19:25:41.158Z,5.50
2023-02-06T19:28:43.701Z,5.35
2023-02-06T19:31:45.379Z,6.00
2023-02-06T19:34:47.220Z,5.50
2023-02-06T19:37:51.645Z,5.43
2023-02-06T19:40:54.292Z,6.10
2023-02-06T19:44:02.192Z,5.60
2023-02-06T19:47:04.604Z,5.80
2023-02-06T19:50:07.843Z,6.43
2023-02-06T19:53:09.884Z,6.40
2023-02-06T19:56:14.064Z,6.03
2023-02-06T19:59:24.991Z,6.43
2023-02-06T20:02:26.612Z,6.32
2023-02-06T20:05:28.402Z,6.05
2023-02-06T20:08:30.528Z,6.75
2023-02-06T20:11:33.643Z,5.78
2023-02-06T20:14:35.434Z,6.05
2023-02-06T20:17:37.099Z,6.30
2023-02-06T20:20:39.404Z,6.20
2023-02-06T20:23:41.791Z,5.43
2023-02-06T20:26:43.528Z,5.88
2023-02-06T20:29:49.705Z,5.40
2023-02-06T20:32:51.873Z,5.75
2023-02-06T20:35:53.587Z,5.88
2023-02-06T20:38:58.605Z,4.55
2023-02-06T20:42:02.832Z,4.90
2023-02-06T20:45:04.599Z,4.60
2023-02-06T20:48:06.218Z,5.15
2023-02-06T20:51:07.984Z,6.05
2023-02-06T20:54:11.579Z,5.90
2023-02-06T20:57:15.487Z,5.82
2023-02-06T21:00:20.550Z,6.40
2023-02-06T21:03:23.212Z,6.40
2023-02-06T21:06:25.815Z,7.78
2023-02-06T21:09:28.056Z,7.38
2023-02-06T21:12:29.652Z,7.68
2023-02-06T21:15:31.264Z,7.63
2023-02-06T21:18:33.677Z,8.68
2023-02-06T21:21:37.298Z,8.07
2023-02-06T21:24:39.014Z,8.52
2023-02-06T21:27:40.643Z,8.05
2023-02-06T21:30:42.325Z,7.30
2023-02-06T21:33:46.401Z,6.82
2023-02-06T21:36:49.469Z,6.07
2023-02-06T21:39:51.182Z,6.75
2023-02-06T21:42:52.805Z,5.70
2023-02-06T21:45:56.956Z,5.70
2023-02-06T21:48:59.462Z,6.30
2023-02-06T21:52:02.126Z,5.85
2023-02-06T21:55:07.437Z,6.22
2023-02-06T21:58:09.984Z,6.93
2023-02-06T22:01:16.902Z,7.32
2023-02-06T22:04:21.657Z,7.28
2023-02-06T22:07:23.306Z,6.88
2023-02-06T22:10:25.180Z,6.10
2023-02-06T22:13:29.530Z,6.53
2023-02-06T22:16:32.433Z,6.72
2023-02-06T22:19:35.097Z,6.60
2023-02-06T22:22:38.611Z,7.50
2023-02-06T22:25:47.698Z,6.70
2023-02-06T22:28:49.611Z,5.85
2023-02-06T22:31:51.464Z,6.25
2023-02-06T22:34:53.975Z,6.35
2023-02-06T22:37:56.416Z,6.15
2023-02-06T22:41:00.154Z,10.30
2023-02-06T22:44:02.079Z,12.48
2023-02-06T22:47:04.113Z,12.68
2023-02-06T22:50:06.076Z,12.95
2023-02-06T22:53:29.530Z,9.93
2023-02-06T22:56:35.937Z,9.05
2023-02-06T22:59:37.908Z,8.35
2023-02-06T23:02:39.747Z,8.60
2023-02-06T23:05:41.581Z,8.95
2023-02-06T23:08:43.836Z,8.70
2023-02-06T23:11:45.569Z,8.55
2023-02-06T23:14:47.347Z,8.88
2023-02-06T23:17:50.120Z,8.45
2023-02-06T23:21:03.779Z,7.95
2023-02-06T23:24:07.602Z,8.38
2023-02-06T23:27:09.381Z,7.15
2023-02-06T23:30:11.983Z,6.97
2023-02-06T23:33:14.513Z,8.23
2023-02-06T23:36:18.770Z,7.60
2023-02-06T23:39:21.182Z,7.03
2023-02-06T23:42:23.080Z,7.82
2023-02-06T23:45:24.921Z,7.32
2023-02-06T23:48:26.550Z,7.68
2023-02-06T23:51:31.703Z,7.68
2023-02-06T23:54:33.352Z,7.30
2023-02-06T23:57:36.532Z,7.72
